Time;durP1;ratioP1;P1;durP2;ratioP2;P2;SDS_P1;SDS_P2;PMS_P1;PMS_P2;Temp;Humidity;BMP_temperature;BMP_pressure;BME280_temperature;BME280_humidity;BME280_pressure;Samples;Min_cycle;Max_cycle;Signal;HPM_P1;HPM_P2
2021/03/07 00:00:13;;;;;;;12.55;6.82;;;1.70;99.90;;;;;;4956412;29;20027;-83
2021/03/07 00:02:39;;;;;;;10.27;7.38;;;1.90;99.90;;;;;;4938830;29;20030;-83
2021/03/07 00:05:07;;;;;;;14.32;7.57;;;1.70;99.90;;;;;;4938659;29;20491;-82
2021/03/07 00:07:33;;;;;;;13.00;7.00;;;1.90;99.90;;;;;;4939023;29;20028;-83
2021/03/07 00:09:58;;;;;;;16.10;7.60;;;1.60;99.90;;;;;;4938720;29;20028;-83
2021/03/07 00:12:24;;;;;;;11.18;7.18;;;1.50;99.90;;;;;;4938771;29;20027;-83
2021/03/07 00:14:50;;;;;;;11.38;6.97;;;1.60;99.90;;;;;;4938634;29;20023;-83
2021/03/07 00:17:16;;;;;;;11.13;6.53;;;2.40;99.90;;;;;;4938779;29;20034;-82
2021/03/07 00:19:42;;;;;;;12.68;7.35;;;2.10;99.90;;;;;;4955919;29;20379;-83
2021/03/07 00:22:07;;;;;;;11.73;6.72;;;1.60;99.90;;;;;;4938651;29;20023;-83
2021/03/07 00:24:33;;;;;;;11.93;7.10;;;1.60;99.90;;;;;;4938691;29;20028;-83
2021/03/07 00:26:59;;;;;;;21.30;7.13;;;1.30;99.90;;;;;;4938731;29;20106;-83
2021/03/07 00:29:25;;;;;;;12.20;6.80;;;1.70;99.90;;;;;;4938523;29;20031;-83
2021/03/07 00:31:51;;;;;;;12.88;7.60;;;2.00;99.90;;;;;;4956037;28;20376;-83
2021/03/07 00:34:17;;;;;;;13.50;7.15;;;2.10;99.90;;;;;;4955918;29;20074;-83
2021/03/07 00:36:42;;;;;;;11.32;7.28;;;2.00;99.90;;;;;;4938358;29;20075;-83
2021/03/07 00:39:08;;;;;;;14.70;8.48;;;1.60;99.90;;;;;;4938891;29;20062;-83
2021/03/07 00:41:34;;;;;;;12.90;7.35;;;1.30;99.90;;;;;;4939122;29;20122;-83
2021/03/07 00:44:00;;;;;;;11.57;6.65;;;1.50;99.90;;;;;;4938447;29;20027;-82
2021/03/07 00:46:26;;;;;;;11.45;5.78;;;1.70;99.90;;;;;;4938486;29;20027;-83
2021/03/07 00:48:52;;;;;;;13.05;6.32;;;1.90;99.90;;;;;;4938205;29;20098;-83
2021/03/07 00:51:17;;;;;;;11.80;6.85;;;1.80;99.90;;;;;;4939135;29;20028;-82
2021/03/07 00:53:43;;;;;;;11.27;7.10;;;2.00;99.90;;;;;;4942395;29;20131;-83
2021/03/07 00:56:08;;;;;;;10.45;6.35;;;2.00;99.90;;;;;;4942349;29;20522;-83
2021/03/07 00:58:34;;;;;;;13.85;7.63;;;2.00;99.90;;;;;;4942208;29;20122;-83
2021/03/07 01:01:00;;;;;;;11.25;6.88;;;2.10;99.90;;;;;;4942212;29;20032;-83
2021/03/07 01:03:25;;;;;;;12.63;7.10;;;2.00;99.90;;;;;;4942141;29;20499;-83
2021/03/07 01:05:51;;;;;;;9.30;6.00;;;2.20;99.90;;;;;;4942180;29;20027;-83
2021/03/07 01:08:17;;;;;;;11.40;6.95;;;2.00;99.90;;;;;;4959123;29;20476;-83
2021/03/07 01:10:44;;;;;;;12.10;6.95;;;2.40;99.90;;;;;;4941969;29;20042;-83
2021/03/07 01:13:13;;;;;;;11.80;7.18;;;1.50;99.90;;;;;;4941842;29;20031;-83
2021/03/07 01:15:40;;;;;;;12.27;6.82;;;1.30;99.90;;;;;;4942073;29;20030;-83
2021/03/07 01:18:06;;;;;;;10.18;6.55;;;1.10;99.90;;;;;;4959245;29;20042;-83
2021/03/07 01:20:33;;;;;;;14.35;7.10;;;1.50;99.90;;;;;;4941869;29;20114;-83
2021/03/07 01:22:59;;;;;;;14.65;6.60;;;1.80;99.90;;;;;;4941602;29;20031;-83
2021/03/07 01:25:28;;;;;;;13.50;7.20;;;1.80;99.90;;;;;;4941724;29;20031;-83
2021/03/07 01:27:54;;;;;;;11.32;7.22;;;1.70;99.90;;;;;;4941793;29;20078;-83
2021/03/07 01:30:21;;;;;;;13.07;6.55;;;1.90;99.90;;;;;;4958619;29;20027;-82
2021/03/07 01:32:50;;;;;;;12.18;7.25;;;2.00;99.90;;;;;;4941525;29;20049;-83
2021/03/07 01:35:17;;;;;;;10.27;6.43;;;2.00;99.90;;;;;;4941421;29;20079;-83
2021/03/07 01:37:43;;;;;;;11.55;6.55;;;1.90;99.90;;;;;;4941644;29;20534;-83
2021/03/07 01:40:13;;;;;;;13.35;6.35;;;2.00;99.90;;;;;;4958650;29;20102;-85
2021/03/07 01:42:53;;;;;;;11.20;6.55;;;1.90;99.90;;;;;;4941571;29;20082;-85
2021/03/07 01:45:20;;;;;;;11.13;6.25;;;1.70;99.90;;;;;;4941713;29;20027;-83
2021/03/07 01:47:50;;;;;;;12.68;6.40;;;2.00;99.90;;;;;;4941386;29;20384;-85
2021/03/07 01:50:18;;;;;;;10.20;6.60;;;1.70;99.90;;;;;;4941033;29;20083;-82
2021/03/07 01:52:45;;;;;;;12.55;6.57;;;1.60;99.90;;;;;;4941155;29;20035;-85
2021/03/07 01:55:11;;;;;;;10.65;6.10;;;1.60;99.90;;;;;;4941170;29;20030;-85
2021/03/07 01:57:38;;;;;;;13.13;6.60;;;1.60;99.90;;;;;;4941176;29;20023;-84
2021/03/07 02:00:09;;;;;;;13.23;5.72;;;1.70;99.90;;;;;;4941191;29;20031;-85
2021/03/07 02:02:35;;;;;;;13.20;6.50;;;1.90;99.90;;;;;;4941022;28;20027;-84
2021/03/07 02:05:06;;;;;;;9.65;5.90;;;2.20;99.90;;;;;;4940645;29;20030;-84
2021/03/07 02:07:31;;;;;;;11.98;5.85;;;2.50;99.90;;;;;;4941173;29;20054;-84
2021/03/07 02:09:57;;;;;;;10.77;6.55;;;2.40;99.90;;;;;;4940994;29;20059;-84
2021/03/07 02:12:24;;;;;;;10.82;6.45;;;2.10;99.90;;;;;;4958090;29;20411;-84
2021/03/07 02:14:51;;;;;;;13.65;7.45;;;1.90;99.90;;;;;;4940877;29;20023;-84
2021/03/07 02:17:18;;;;;;;13.38;5.95;;;1.90;99.90;;;;;;4940888;29;20430;-84
2021/03/07 02:19:45;;;;;;;10.50;6.63;;;2.30;99.90;;;;;;4940780;29;20062;-84
2021/03/07 02:22:24;;;;;;;9.68;5.63;;;2.20;99.90;;;;;;4957963;29;20031;-84
2021/03/07 02:24:50;;;;;;;9.65;5.78;;;2.00;99.90;;;;;;4957812;29;20039;-85
2021/03/07 02:27:16;;;;;;;10.25;6.47;;;2.00;99.90;;;;;;4940692;29;20143;-84
2021/03/07 02:29:44;;;;;;;10.32;6.15;;;1.40;99.90;;;;;;4940405;29;20030;-85
2021/03/07 02:32:17;;;;;;;10.75;5.97;;;1.00;99.90;;;;;;4940403;29;20023;-84
2021/03/07 02:34:55;;;;;;;12.10;6.43;;;0.90;99.90;;;;;;4940520;29;20031;-84
2021/03/07 02:37:22;;;;;;;13.60;6.63;;;0.80;99.90;;;;;;4940388;29;20030;-85
2021/03/07 02:39:50;;;;;;;9.85;6.22;;;0.90;99.90;;;;;;4940457;29;20074;-85
2021/03/07 02:42:20;;;;;;;11.15;6.40;;;0.70;99.90;;;;;;4940352;29;20031;-84
2021/03/07 02:45:05;;;;;;;9.93;5.75;;;1.20;99.90;;;;;;4940307;29;20031;-84
2021/03/07 02:47:33;;;;;;;10.73;6.18;;;1.10;99.90;;;;;;4940512;29;20399;-84
2021/03/07 02:50:06;;;;;;;11.23;6.18;;;1.10;99.90;;;;;;4957097;29;20050;-84
2021/03/07 02:52:32;;;;;;;9.93;6.15;;;1.10;99.90;;;;;;4957375;29;20023;-85
2021/03/07 02:55:00;;;;;;;9.88;6.38;;;1.00;99.90;;;;;;4940183;29;20031;-85
2021/03/07 02:57:27;;;;;;;11.98;6.10;;;0.60;99.90;;;;;;4940026;29;20061;-85
2021/03/07 02:59:56;;;;;;;10.63;5.95;;;0.50;99.90;;;;;;4939892;29;20065;-85
2021/03/07 03:02:24;;;;;;;10.52;6.00;;;1.00;99.90;;;;;;4940273;29;20027;-85
2021/03/07 03:04:50;;;;;;;11.70;6.40;;;1.10;99.90;;;;;;4940183;29;20031;-85
2021/03/07 03:07:18;;;;;;;65.97;17.52;;;1.20;99.90;;;;;;4957216;29;20494;-85
2021/03/07 03:09:44;;;;;;;33.45;11.07;;;1.40;99.90;;;;;;4939728;29;20103;-85
2021/03/07 03:12:10;;;;;;;13.48;6.57;;;1.60;99.90;;;;;;4939957;29;20483;-85
2021/03/07 03:14:37;;;;;;;17.40;8.43;;;1.30;99.90;;;;;;4939110;29;20027;-85
2021/03/07 03:17:04;;;;;;;16.70;7.72;;;0.70;99.90;;;;;;4939526;29;20066;-84
2021/03/07 03:19:33;;;;;;;14.32;7.18;;;0.70;99.90;;;;;;4956947;29;20491;-85
2021/03/07 03:21:59;;;;;;;14.63;7.07;;;0.80;99.90;;;;;;4956666;29;20507;-85
2021/03/07 03:24:25;;;;;;;17.00;7.25;;;0.80;99.90;;;;;;4939578;29;20031;-85
2021/03/07 03:27:01;;;;;;;14.80;6.97;;;0.70;99.90;;;;;;4939543;29;20062;-85
2021/03/07 03:29:28;;;;;;;17.58;7.45;;;0.60;99.90;;;;;;4939441;29;20031;-85
2021/03/07 03:31:53;;;;;;;15.18;6.57;;;1.10;99.90;;;;;;4939401;29;20023;-85
2021/03/07 03:34:19;;;;;;;18.65;7.05;;;1.10;99.90;;;;;;4939029;29;20023;-85
2021/03/07 03:36:45;;;;;;;15.18;6.80;;;1.30;99.90;;;;;;4938980;29;20482;-85
2021/03/07 03:39:16;;;;;;;10.95;6.57;;;1.60;99.90;;;;;;4938966;29;20118;-85
2021/03/07 03:41:45;;;;;;;15.45;7.18;;;1.30;99.90;;;;;;4939022;29;20543;-85
2021/03/07 03:44:15;;;;;;;12.68;6.22;;;1.10;99.90;;;;;;4938853;29;20027;-85
2021/03/07 03:46:43;;;;;;;8.93;5.78;;;1.30;99.90;;;;;;4938865;29;20122;-85
2021/03/07 03:49:17;;;;;;;10.52;5.82;;;1.40;99.90;;;;;;4938510;29;20047;-86
2021/03/07 03:51:44;;;;;;;8.82;4.53;;;1.10;99.90;;;;;;4938790;29;20086;-85
2021/03/07 03:54:12;;;;;;;11.80;5.80;;;0.90;99.90;;;;;;4938692;29;20483;-85
2021/03/07 03:56:38;;;;;;;11.85;5.90;;;0.90;99.90;;;;;;4938695;29;20019;-85
2021/03/07 03:59:06;;;;;;;12.27;5.97;;;1.50;99.90;;;;;;4955867;29;20369;-85
2021/03/07 04:01:35;;;;;;;12.13;5.57;;;1.80;99.90;;;;;;4938952;29;20031;-85
2021/03/07 04:04:04;;;;;;;9.50;6.13;;;1.60;99.90;;;;;;4938553;29;20058;-86
2021/03/07 04:06:31;;;;;;;10.48;5.78;;;1.30;99.90;;;;;;4938479;29;20085;-86
2021/03/07 04:08:57;;;;;;;8.95;5.38;;;1.40;99.90;;;;;;4938409;29;20027;-85
2021/03/07 04:11:23;;;;;;;10.85;6.40;;;1.10;99.90;;;;;;4938436;29;20395;-85
2021/03/07 04:13:50;;;;;;;9.85;5.85;;;0.80;99.90;;;;;;4938430;29;20027;-85
2021/03/07 04:16:20;;;;;;;9.15;5.63;;;1.10;99.90;;;;;;4938390;29;20070;-86
2021/03/07 04:18:47;;;;;;;10.00;6.15;;;1.00;99.90;;;;;;4938381;29;20042;-85
2021/03/07 04:21:14;;;;;;;9.07;5.90;;;0.20;99.90;;;;;;4955891;29;20066;-86
2021/03/07 04:23:40;;;;;;;9.18;6.10;;;0.20;99.90;;;;;;4955544;29;20031;-85
2021/03/07 04:26:06;;;;;;;12.05;5.95;;;0.30;99.90;;;;;;4937962;29;20031;-85
2021/03/07 04:28:32;;;;;;;9.98;6.30;;;0.20;99.90;;;;;;4938732;29;20031;-85
2021/03/07 04:30:59;;;;;;;9.25;5.90;;;0.40;99.90;;;;;;4955445;29;20543;-86
2021/03/07 04:33:25;;;;;;;11.43;6.18;;;0.10;99.90;;;;;;4938130;29;20027;-85
2021/03/07 04:35:51;;;;;;;8.73;5.57;;;0.00;99.90;;;;;;4938204;29;20043;-85
2021/03/07 04:38:16;;;;;;;9.20;5.68;;;0.10;99.90;;;;;;4955381;29;20365;-85
2021/03/07 04:40:42;;;;;;;11.93;5.82;;;0.20;99.90;;;;;;4938150;29;20118;-85
2021/03/07 04:43:08;;;;;;;8.55;5.55;;;0.00;99.90;;;;;;4955350;29;20024;-85
2021/03/07 04:45:35;;;;;;;10.38;5.90;;;0.00;99.90;;;;;;4938169;29;20027;-85
2021/03/07 04:48:01;;;;;;;8.18;5.70;;;0.30;99.90;;;;;;4938080;29;20058;-85
2021/03/07 04:50:27;;;;;;;8.18;5.22;;;0.50;99.90;;;;;;4937815;29;20054;-85
2021/03/07 04:52:53;;;;;;;8.98;5.50;;;0.30;99.90;;;;;;4938032;29;20391;-86
2021/03/07 04:55:19;;;;;;;10.88;5.70;;;0.50;99.90;;;;;;4938058;29;20020;-85
2021/03/07 04:57:44;;;;;;;8.85;5.53;;;0.10;99.90;;;;;;4938050;29;20471;-85
2021/03/07 05:00:15;;;;;;;9.40;5.68;;;-0.20;99.90;;;;;;4955438;29;20027;-85
2021/03/07 05:02:41;;;;;;;8.05;5.18;;;0.10;99.90;;;;;;4938009;29;20033;-86
2021/03/07 05:05:07;;;;;;;8.85;5.85;;;0.50;99.90;;;;;;4937948;29;20471;-85
2021/03/07 05:07:34;;;;;;;10.35;5.80;;;1.00;99.90;;;;;;4937904;29;20035;-85
2021/03/07 05:09:59;;;;;;;8.30;5.68;;;1.00;99.90;;;;;;4937842;29;20051;-85
2021/03/07 05:12:25;;;;;;;9.18;5.78;;;1.30;99.90;;;;;;4937888;29;20054;-85
2021/03/07 05:14:51;;;;;;;8.07;5.43;;;1.60;99.90;;;;;;4955068;29;20487;-85
2021/03/07 05:17:17;;;;;;;9.60;5.60;;;1.30;99.90;;;;;;4937798;29;20055;-85
2021/03/07 05:19:43;;;;;;;10.43;5.45;;;0.90;99.90;;;;;;4937803;29;20031;-85
2021/03/07 05:22:09;;;;;;;10.57;5.88;;;0.60;99.90;;;;;;4937790;29;20475;-85
2021/03/07 05:24:34;;;;;;;8.25;5.15;;;0.40;99.90;;;;;;4937730;29;20490;-85
2021/03/07 05:27:05;;;;;;;8.02;5.65;;;0.30;99.90;;;;;;4954890;29;20049;-85
2021/03/07 05:29:35;;;;;;;9.93;5.70;;;0.10;99.90;;;;;;4937647;29;20031;-85
2021/03/07 05:32:02;;;;;;;7.75;5.60;;;0.30;99.90;;;;;;4937665;29;20046;-85
2021/03/07 05:34:28;;;;;;;10.30;5.18;;;0.40;99.90;;;;;;4937697;29;20386;-85
2021/03/07 05:36:54;;;;;;;9.48;5.65;;;0.20;99.90;;;;;;4937616;29;20510;-85
2021/03/07 05:39:20;;;;;;;9.07;5.40;;;0.00;99.90;;;;;;4939816;29;20055;-85
2021/03/07 05:41:46;;;;;;;10.38;5.60;;;0.00;99.90;;;;;;4958297;29;20053;-85
2021/03/07 05:44:12;;;;;;;8.75;5.40;;;0.20;99.90;;;;;;4941039;29;20554;-85
2021/03/07 05:46:39;;;;;;;8.13;5.85;;;0.00;99.90;;;;;;4958230;29;20391;-85
2021/03/07 05:49:06;;;;;;;8.82;6.07;;;0.40;99.90;;;;;;4957920;29;20488;-85
2021/03/07 05:51:32;;;;;;;8.60;5.90;;;0.40;99.90;;;;;;4940958;29;20394;-84
2021/03/07 05:53:59;;;;;;;7.68;5.38;;;0.40;99.90;;;;;;4940900;29;20110;-84
2021/03/07 05:56:25;;;;;;;8.73;5.90;;;0.60;99.90;;;;;;4940844;29;20087;-85
2021/03/07 05:58:53;;;;;;;9.63;5.45;;;0.30;99.90;;;;;;4940713;29;20039;-85
2021/03/07 06:01:19;;;;;;;9.40;6.25;;;-0.20;99.90;;;;;;4940718;29;20043;-85
2021/03/07 06:03:45;;;;;;;9.10;5.88;;;-0.20;99.90;;;;;;4940738;29;20031;-85
2021/03/07 06:06:11;;;;;;;7.45;5.82;;;0.40;99.90;;;;;;4940660;29;20118;-85
2021/03/07 06:08:36;;;;;;;8.10;5.40;;;0.50;99.90;;;;;;4940547;29;20090;-85
2021/03/07 06:11:02;;;;;;;8.35;4.88;;;0.80;99.90;;;;;;4940578;29;20027;-85
2021/03/07 06:13:44;;;;;;;10.90;5.65;;;1.30;99.90;;;;;;4940514;29;20031;-85
2021/03/07 06:16:11;;;;;;;11.20;6.65;;;1.20;99.90;;;;;;4940438;29;20054;-85
2021/03/07 06:18:45;;;;;;;13.10;6.40;;;0.80;99.90;;;;;;4940511;29;20062;-85
2021/03/07 06:21:31;;;;;;;12.88;6.15;;;0.60;99.90;;;;;;4957630;29;20122;-85
2021/03/07 06:23:59;;;;;;;11.50;5.88;;;0.50;99.90;;;;;;4940287;29;20031;-84
2021/03/07 06:26:25;;;;;;;10.27;5.75;;;0.80;99.90;;;;;;4940265;29;20042;-84
2021/03/07 06:29:12;;;;;;;9.60;5.53;;;0.90;99.90;;;;;;4940470;29;20035;-84
2021/03/07 06:31:40;;;;;;;11.20;6.00;;;0.90;99.90;;;;;;4940211;29;20034;-84
2021/03/07 06:34:06;;;;;;;9.43;6.00;;;0.80;99.90;;;;;;4940215;29;20031;-84
2021/03/07 06:36:33;;;;;;;12.73;6.10;;;0.50;99.90;;;;;;4957207;29;20050;-84
2021/03/07 06:39:06;;;;;;;10.68;5.88;;;0.90;99.90;;;;;;4940068;29;20058;-84
2021/03/07 06:41:33;;;;;;;8.50;5.88;;;0.70;99.90;;;;;;4940000;29;20028;-85
2021/03/07 06:44:15;;;;;;;10.18;5.88;;;0.40;99.90;;;;;;4940006;29;20067;-84
2021/03/07 06:46:43;;;;;;;9.98;6.20;;;0.40;99.90;;;;;;4939981;29;20031;-84
2021/03/07 06:49:26;;;;;;;10.75;6.07;;;0.60;99.90;;;;;;4939392;29;20062;-84
2021/03/07 06:51:59;;;;;;;8.45;5.70;;;0.70;99.90;;;;;;4939858;29;20024;-84
2021/03/07 06:54:26;;;;;;;8.95;6.15;;;0.90;99.90;;;;;;4939740;29;20020;-84
2021/03/07 06:56:51;;;;;;;11.43;6.60;;;0.80;99.90;;;;;;4939989;29;20023;-85
2021/03/07 06:59:18;;;;;;;8.07;5.90;;;0.80;99.90;;;;;;4956928;29;20444;-84
2021/03/07 07:01:47;;;;;;;9.57;5.75;;;1.10;99.90;;;;;;4939609;29;20035;-85
2021/03/07 07:04:14;;;;;;;9.18;5.88;;;1.50;99.90;;;;;;4939580;29;20475;-84
2021/03/07 07:06:41;;;;;;;8.68;6.00;;;1.40;99.90;;;;;;4939549;29;20024;-85
2021/03/07 07:09:10;;;;;;;11.50;5.97;;;1.10;99.90;;;;;;4939372;29;20027;-84
2021/03/07 07:11:42;;;;;;;8.55;5.53;;;1.00;99.90;;;;;;4939492;29;20382;-85
2021/03/07 07:14:09;;;;;;;7.07;5.38;;;1.20;99.90;;;;;;4939357;29;20379;-85
2021/03/07 07:16:34;;;;;;;9.80;6.35;;;1.40;99.90;;;;;;4956590;29;20023;-84
2021/03/07 07:19:01;;;;;;;9.30;6.38;;;1.60;99.90;;;;;;4939259;29;20170;-85
2021/03/07 07:21:27;;;;;;;8.85;5.82;;;1.70;99.90;;;;;;4956478;29;20391;-85
2021/03/07 07:23:53;;;;;;;9.55;6.18;;;1.70;99.90;;;;;;4939242;29;20027;-85
2021/03/07 07:26:18;;;;;;;8.90;6.00;;;1.80;99.90;;;;;;4956380;29;20027;-84
2021/03/07 07:28:44;;;;;;;9.77;6.47;;;1.70;99.90;;;;;;4939029;29;20089;-85
2021/03/07 07:31:22;;;;;;;10.80;7.07;;;1.60;99.90;;;;;;4939029;28;20118;-84
2021/03/07 07:33:53;;;;;;;10.32;6.78;;;1.70;99.90;;;;;;4956249;29;20380;-84
2021/03/07 07:36:47;;;;;;;9.82;6.80;;;1.60;99.90;;;;;;4956230;29;20027;-85
2021/03/07 07:39:17;;;;;;;15.60;7.53;;;1.40;99.90;;;;;;4938956;29;20033;-85
2021/03/07 07:41:43;;;;;;;10.38;6.28;;;1.70;99.90;;;;;;4938845;29;20031;-85
2021/03/07 07:44:12;;;;;;;7.93;5.85;;;2.10;99.90;;;;;;4938876;29;20368;-84
2021/03/07 07:46:54;;;;;;;9.60;6.07;;;2.60;99.90;;;;;;4938823;29;20549;-85
2021/03/07 07:49:40;;;;;;;10.13;6.68;;;2.80;99.90;;;;;;4938489;29;20081;-85
2021/03/07 07:52:34;;;;;;;15.13;7.72;;;2.80;99.90;;;;;;4938691;29;20023;-85
2021/03/07 07:55:03;;;;;;;;;;;2.50;99.90;;;;;;4934912;29;20039;-85
2021/03/07 07:57:32;;;;;;;11.02;6.90;;;2.60;99.90;;;;;;4938631;29;20374;-85
2021/03/07 07:59:59;;;;;;;11.10;7.50;;;2.80;99.90;;;;;;4938593;29;20023;-85
2021/03/07 08:02:46;;;;;;;11.40;6.90;;;2.70;99.90;;;;;;4938122;29;20027;-85
2021/03/07 08:05:20;;;;;;;13.20;8.45;;;2.60;99.90;;;;;;4955709;29;20383;-85
2021/03/07 08:08:08;;;;;;;12.65;7.22;;;2.60;99.90;;;;;;4938443;29;20031;-86
2021/03/07 08:10:40;;;;;;;12.68;7.60;;;2.70;99.90;;;;;;4938455;29;20038;-85
2021/03/07 08:13:09;;;;;;;13.57;7.15;;;2.80;99.90;;;;;;4938385;29;20431;-86
2021/03/07 08:15:42;;;;;;;12.75;6.88;;;3.00;99.90;;;;;;4938449;29;20034;-86
2021/03/07 08:18:08;;;;;;;9.48;6.93;;;3.40;99.90;;;;;;4938283;29;20035;-86
2021/03/07 08:20:40;;;;;;;9.75;6.30;;;3.40;99.90;;;;;;4955568;29;20118;-85
2021/03/07 08:23:08;;;;;;;9.20;5.78;;;3.60;99.90;;;;;;4938247;29;20031;-85
2021/03/07 08:25:48;;;;;;;9.02;6.47;;;3.50;99.90;;;;;;4955532;29;20031;-85
2021/03/07 08:28:29;;;;;;;9.70;6.90;;;3.60;99.90;;;;;;4938201;29;20035;-85
2021/03/07 08:31:06;;;;;;;12.13;6.85;;;3.60;99.90;;;;;;4938226;29;20379;-85
2021/03/07 08:33:32;;;;;;;13.23;7.88;;;3.80;99.90;;;;;;4938256;29;20073;-86
2021/03/07 08:36:16;;;;;;;13.73;7.93;;;4.00;99.90;;;;;;4938207;29;20051;-86
2021/03/07 08:38:48;;;;;;;;;;;4.10;99.90;;;;;;4938343;29;20054;-86
2021/03/07 08:41:15;;;;;;;9.85;6.57;;;4.10;99.90;;;;;;4938080;29;19907;-85
2021/03/07 08:43:40;;;;;;;11.18;7.18;;;4.20;99.90;;;;;;4938122;29;20027;-86
2021/03/07 08:46:12;;;;;;;23.23;10.18;;;4.40;99.90;;;;;;4938182;29;20505;-85
2021/03/07 08:49:06;;;;;;;13.20;6.95;;;4.40;99.90;;;;;;4937874;29;20047;-85
2021/03/07 08:51:36;;;;;;;16.00;7.63;;;4.50;99.90;;;;;;4938261;29;20385;-85
2021/03/07 08:54:07;;;;;;;11.70;7.05;;;4.50;99.90;;;;;;4938061;29;20483;-85
2021/03/07 08:56:33;;;;;;;13.15;7.38;;;4.60;99.90;;;;;;4937999;29;20031;-86
2021/03/07 08:58:59;;;;;;;9.88;7.22;;;4.60;99.90;;;;;;4937977;29;20031;-86
2021/03/07 09:01:25;;;;;;;13.63;7.75;;;4.80;99.90;;;;;;4938212;29;20030;-86
2021/03/07 09:03:53;;;;;;;14.27;8.25;;;5.00;99.90;;;;;;4938102;29;20058;-86
2021/03/07 09:06:18;;;;;;;14.40;7.25;;;5.20;99.90;;;;;;4955196;29;20034;-86
2021/03/07 09:08:44;;;;;;;11.90;7.60;;;5.20;99.90;;;;;;4938008;29;20027;-86
2021/03/07 09:11:10;;;;;;;13.68;7.00;;;5.40;99.90;;;;;;4937860;29;20089;-86
2021/03/07 09:13:47;;;;;;;9.93;7.18;;;5.60;99.90;;;;;;4939049;29;20023;-87
2021/03/07 09:16:13;;;;;;;11.98;8.02;;;5.60;99.90;;;;;;4941682;29;20024;-87
2021/03/07 09:18:39;;;;;;;10.98;7.28;;;5.60;99.90;;;;;;4958901;29;20032;-87
2021/03/07 09:21:06;;;;;;;11.40;7.90;;;5.80;99.90;;;;;;4941742;29;20023;-87
2021/03/07 09:23:35;;;;;;;10.68;7.47;;;6.40;99.90;;;;;;4941526;29;20114;-87
2021/03/07 09:26:12;;;;;;;12.27;7.57;;;6.70;99.90;;;;;;4941444;29;20118;-88
2021/03/07 09:28:40;;;;;;;10.43;8.30;;;7.00;99.90;;;;;;4941423;29;20031;-90
2021/03/07 09:31:09;;;;;;;10.65;7.65;;;7.50;99.40;;;;;;4958641;28;20517;-89
2021/03/07 09:33:35;;;;;;;15.65;9.63;;;7.60;98.90;;;;;;4941514;29;20026;-90
2021/03/07 09:36:04;;;;;;;11.30;7.53;;;7.70;98.40;;;;;;4941493;29;20016;-87
2021/03/07 09:38:48;;;;;;;16.05;8.35;;;7.90;98.00;;;;;;4941215;29;20034;-86
2021/03/07 09:41:16;;;;;;;9.67;7.20;;;8.00;97.50;;;;;;4942000;29;20482;-86
2021/03/07 09:43:46;;;;;;;16.00;9.30;;;8.30;97.30;;;;;;4941218;29;20031;-86
2021/03/07 09:46:12;;;;;;;12.77;8.32;;;8.40;97.10;;;;;;4941072;29;20043;-88
2021/03/07 09:48:39;;;;;;;15.45;7.82;;;8.40;97.30;;;;;;4940923;29;20051;-88
2021/03/07 09:51:10;;;;;;;11.15;8.30;;;8.50;96.90;;;;;;4941076;29;20546;-88
2021/03/07 09:53:38;;;;;;;12.93;8.60;;;8.70;97.20;;;;;;4941853;29;20380;-88
2021/03/07 09:56:04;;;;;;;13.40;7.95;;;8.80;96.30;;;;;;4940966;29;20082;-88
2021/03/07 09:58:37;;;;;;;13.00;8.30;;;8.70;96.00;;;;;;4941068;29;20023;-88
2021/03/07 10:01:06;;;;;;;11.67;8.17;;;8.60;95.90;;;;;;4958250;29;20029;-88
2021/03/07 10:03:33;;;;;;;13.85;8.43;;;8.50;96.20;;;;;;4958169;29;20023;-88
2021/03/07 10:06:06;;;;;;;10.30;7.82;;;8.70;95.50;;;;;;4940693;29;20122;-88
2021/03/07 10:08:33;;;;;;;11.95;8.23;;;9.00;94.80;;;;;;4940566;29;20384;-88
2021/03/07 10:11:16;;;;;;;11.32;7.82;;;9.20;94.50;;;;;;4957822;29;20019;-87
2021/03/07 10:13:43;;;;;;;9.90;7.18;;;9.50;93.50;;;;;;4940669;29;20547;-88
2021/03/07 10:16:10;;;;;;;10.75;7.40;;;9.80;92.60;;;;;;4957812;29;20054;-88
2021/03/07 10:18:36;;;;;;;9.75;6.85;;;9.60;92.20;;;;;;4940495;29;20035;-85
2021/03/07 10:21:04;;;;;;;13.73;8.90;;;9.70;92.10;;;;;;4957606;29;20090;-88
2021/03/07 10:23:32;;;;;;;9.85;7.53;;;9.70;91.00;;;;;;4940819;28;20028;-87
2021/03/07 10:25:59;;;;;;;12.35;9.52;;;9.40;91.00;;;;;;4939880;29;20120;-87
2021/03/07 10:28:31;;;;;;;10.00;7.03;;;9.50;91.00;;;;;;4957517;29;20070;-88
2021/03/07 10:31:13;;;;;;;10.15;7.47;;;9.80;91.10;;;;;;4957505;29;20102;-87
2021/03/07 10:33:39;;;;;;;11.27;7.63;;;9.90;90.40;;;;;;4940159;29;20504;-87
2021/03/07 10:36:13;;;;;;;10.27;7.68;;;9.70;90.70;;;;;;4940169;29;20038;-88
2021/03/07 10:39:03;;;;;;;9.50;7.07;;;9.70;90.50;;;;;;4940157;29;20114;-88
2021/03/07 10:41:31;;;;;;;9.57;7.00;;;10.10;90.20;;;;;;4939900;29;20027;-89
2021/03/07 10:44:05;;;;;;;9.68;7.53;;;10.70;87.90;;;;;;4940087;29;20399;-88
2021/03/07 10:46:33;;;;;;;8.80;7.22;;;10.90;85.10;;;;;;4940116;29;20031;-89
2021/03/07 10:49:02;;;;;;;9.70;6.90;;;11.20;85.30;;;;;;4939640;29;20147;-89
2021/03/07 10:51:28;;;;;;;11.80;8.32;;;11.20;83.10;;;;;;4939894;29;20086;-88
2021/03/07 10:53:54;;;;;;;9.88;6.78;;;10.50;82.00;;;;;;4940106;29;20034;-88
2021/03/07 10:56:20;;;;;;;12.00;8.13;;;10.30;84.40;;;;;;4939781;29;20019;-88
2021/03/07 10:58:47;;;;;;;13.02;8.98;;;10.90;83.90;;;;;;4939755;29;20038;-88
2021/03/07 11:01:15;;;;;;;9.90;8.43;;;11.20;81.00;;;;;;4940005;29;20078;-89
2021/03/07 11:03:42;;;;;;;13.77;7.22;;;11.60;80.00;;;;;;4939861;29;20368;-88
2021/03/07 11:06:09;;;;;;;10.95;7.90;;;11.20;80.40;;;;;;4939685;29;20035;-88
2021/03/07 11:08:36;;;;;;;10.10;7.20;;;11.50;82.00;;;;;;4939523;29;20059;-89
2021/03/07 11:11:03;;;;;;;10.73;7.40;;;12.20;78.60;;;;;;4939532;29;20030;-89
2021/03/07 11:13:28;;;;;;;9.77;7.18;;;12.10;77.50;;;;;;4939629;29;20020;-88
2021/03/07 11:15:54;;;;;;;9.38;7.53;;;12.30;77.60;;;;;;4939817;29;20050;-88
2021/03/07 11:18:20;;;;;;;10.80;8.05;;;12.50;76.20;;;;;;4956849;29;20016;-88
2021/03/07 11:20:46;;;;;;;9.82;7.70;;;12.60;76.30;;;;;;4939401;29;20099;-89
2021/03/07 11:23:12;;;;;;;9.93;7.75;;;12.60;75.50;;;;;;4939363;29;20030;-89
2021/03/07 11:25:37;;;;;;;12.30;7.32;;;13.00;74.10;;;;;;4939409;29;20495;-88
2021/03/07 11:28:04;;;;;;;14.02;8.32;;;13.40;72.50;;;;;;4939307;29;20055;-88
2021/03/07 11:30:29;;;;;;;11.32;7.15;;;13.50;71.70;;;;;;4939191;29;20023;-88
2021/03/07 11:32:55;;;;;;;9.93;7.22;;;13.90;70.50;;;;;;4939031;29;20383;-89
2021/03/07 11:35:22;;;;;;;10.13;7.47;;;13.70;70.40;;;;;;4938889;28;20054;-87
2021/03/07 11:37:47;;;;;;;8.65;6.28;;;13.30;71.30;;;;;;4938575;29;20019;-88
2021/03/07 11:40:13;;;;;;;12.18;7.20;;;13.20;71.40;;;;;;4938700;29;20042;-88
2021/03/07 11:42:39;;;;;;;14.80;8.75;;;13.80;70.40;;;;;;4956776;29;20031;-88
2021/03/07 11:45:05;;;;;;;11.63;8.20;;;14.00;68.00;;;;;;4938973;29;20062;-88
2021/03/07 11:47:31;;;;;;;11.00;7.25;;;14.40;66.70;;;;;;4939212;29;20042;-88
2021/03/07 11:50:00;;;;;;;9.43;6.72;;;14.80;65.30;;;;;;4938547;29;20051;-88
2021/03/07 11:52:26;;;;;;;8.95;6.85;;;14.40;65.50;;;;;;4938771;29;20035;-89
2021/03/07 11:54:51;;;;;;;16.50;8.73;;;14.30;65.90;;;;;;4938643;29;20103;-89
2021/03/07 11:57:17;;;;;;;9.95;6.88;;;14.20;64.80;;;;;;4938651;29;20035;-88
2021/03/07 11:59:43;;;;;;;11.05;7.30;;;14.70;64.60;;;;;;4938993;29;20031;-88
2021/03/07 12:02:09;;;;;;;9.35;6.90;;;15.30;62.20;;;;;;4938751;29;20105;-88
2021/03/07 12:04:34;;;;;;;10.15;6.75;;;15.50;60.70;;;;;;4938597;29;20031;-88
2021/03/07 12:07:00;;;;;;;8.07;6.30;;;15.80;59.80;;;;;;4956036;29;20467;-88
2021/03/07 12:09:26;;;;;;;10.00;6.88;;;16.10;58.60;;;;;;4938390;29;20073;-88
2021/03/07 12:11:52;;;;;;;7.93;6.80;;;15.90;58.70;;;;;;4938541;29;20027;-88
2021/03/07 12:14:17;;;;;;;9.88;6.78;;;15.40;58.70;;;;;;4938504;29;20364;-88
2021/03/07 12:16:44;;;;;;;9.40;7.13;;;15.00;60.10;;;;;;4938377;29;20447;-88
2021/03/07 12:19:10;;;;;;;11.40;7.45;;;14.90;59.70;;;;;;4938428;29;20144;-88
2021/03/07 12:21:35;;;;;;;9.27;6.85;;;15.30;59.40;;;;;;4938488;29;20071;-88
2021/03/07 12:24:01;;;;;;;8.40;6.43;;;15.50;59.40;;;;;;4938331;29;20027;-88
2021/03/07 12:26:27;;;;;;;7.97;6.57;;;15.90;58.80;;;;;;4955550;29;20047;-87
2021/03/07 12:28:53;;;;;;;9.82;7.25;;;15.90;57.90;;;;;;4938124;29;20399;-88
2021/03/07 12:31:19;;;;;;;9.00;7.03;;;16.00;57.00;;;;;;4938230;28;20031;-87
2021/03/07 12:33:44;;;;;;;10.45;7.35;;;16.00;57.40;;;;;;4938208;29;20028;-87
2021/03/07 12:36:10;;;;;;;10.55;6.75;;;16.30;56.10;;;;;;4938199;29;20023;-87
2021/03/07 12:38:36;;;;;;;10.10;7.38;;;17.10;55.30;;;;;;4938193;29;20024;-87
2021/03/07 12:41:02;;;;;;;9.52;7.57;;;17.20;54.20;;;;;;4938160;29;20046;-87
2021/03/07 12:43:27;;;;;;;8.98;6.45;;;17.50;53.00;;;;;;4938063;29;20023;-88
2021/03/07 12:45:53;;;;;;;9.60;7.22;;;17.80;52.90;;;;;;4938172;29;20047;-87
2021/03/07 12:48:19;;;;;;;8.80;7.47;;;18.10;51.40;;;;;;4940281;29;20074;-87
2021/03/07 12:50:44;;;;;;;9.40;7.30;;;18.10;51.10;;;;;;4941970;29;20054;-88
2021/03/07 12:53:10;;;;;;;10.10;7.07;;;18.20;51.30;;;;;;4942000;29;20031;-88